Time;durP1;ratioP1;P1;durP2;ratioP2;P2;SDS_P1;SDS_P2;PMS_P1;PMS_P2;Temp;Humidity;BMP_temperature;BMP_pressure;BME280_temperature;BME280_humidity;BME280_pressure;Samples;Min_cycle;Max_cycle;Signal;HPM_P1;HPM_P2
2022/11/30 00:00:54;;;;;;;38.08;22.55;;;;;;;6.88;100.00;102248.25;5074247;28;20085;-35
2022/11/30 00:03:19;;;;;;;35.47;22.80;;;;;;;6.88;100.00;102261.69;5074785;28;20021;-35
2022/11/30 00:05:44;;;;;;;31.50;20.88;;;;;;;6.91;100.00;102255.09;5074431;28;20028;-35
2022/11/30 00:08:10;;;;;;;33.20;22.43;;;;;;;6.87;100.00;102248.38;5074159;28;20020;-36
2022/11/30 00:10:40;;;;;;;38.20;22.87;;;;;;;6.91;100.00;102260.47;5074539;28;20033;-35
2022/11/30 00:13:06;;;;;;;34.78;22.38;;;;;;;6.91;100.00;102263.19;5074552;28;20423;-36
2022/11/30 00:15:32;;;;;;;33.80;21.48;;;;;;;6.88;100.00;102264.38;5074185;28;20032;-35
2022/11/30 00:17:57;;;;;;;35.88;22.40;;;;;;;6.81;100.00;102247.22;5074999;28;20035;-35
2022/11/30 00:20:23;;;;;;;38.30;21.95;;;;;;;6.83;100.00;102247.91;5074075;28;20102;-35
2022/11/30 00:22:48;;;;;;;34.17;20.97;;;;;;;6.90;100.00;102262.34;5074495;28;20035;-36
2022/11/30 00:25:14;;;;;;;33.20;22.50;;;;;;;6.84;100.00;102249.59;5074085;28;20158;-35
2022/11/30 00:27:39;;;;;;;37.47;21.85;;;;;;;6.89;100.00;102268.72;5073736;28;20052;-36
2022/11/30 00:30:05;;;;;;;28.63;19.53;;;;;;;6.92;100.00;102264.84;5073994;28;20029;-35
2022/11/30 00:32:31;;;;;;;35.40;21.15;;;;;;;6.89;100.00;102255.28;5073419;28;20099;-35
2022/11/30 00:34:56;;;;;;;30.20;19.33;;;;;;;6.94;100.00;102258.28;5073348;28;20473;-35
2022/11/30 00:37:21;;;;;;;30.07;19.50;;;;;;;6.92;100.00;102256.78;5074228;28;20751;-35
2022/11/30 00:39:47;;;;;;;26.40;17.20;;;;;;;6.93;100.00;102259.31;5074365;28;20035;-36
2022/11/30 00:42:12;;;;;;;25.00;17.23;;;;;;;6.92;100.00;102260.31;5073692;28;20056;-35
2022/11/30 00:44:37;;;;;;;27.17;17.60;;;;;;;6.90;100.00;102256.13;5074270;28;20368;-35
2022/11/30 00:47:03;;;;;;;28.50;17.97;;;;;;;6.88;100.00;102263.50;5073606;28;20279;-35
2022/11/30 00:49:28;;;;;;;25.77;17.38;;;;;;;6.89;100.00;102266.03;5073652;28;20028;-35
2022/11/30 00:51:54;;;;;;;28.37;18.00;;;;;;;6.80;100.00;102261.69;5073529;28;20086;-35
2022/11/30 00:54:19;;;;;;;23.83;16.27;;;;;;;6.82;100.00;102265.03;5073655;28;20078;-35
2022/11/30 00:56:44;;;;;;;21.37;15.77;;;;;;;6.85;100.00;102271.94;5073411;28;20037;-35
2022/11/30 00:59:10;;;;;;;21.40;15.63;;;;;;;6.88;100.00;102267.06;5073757;28;20419;-35
2022/11/30 01:01:35;;;;;;;23.23;16.77;;;;;;;6.84;100.00;102268.41;5072122;28;20440;-35
2022/11/30 01:04:01;;;;;;;21.00;16.07;;;;;;;6.87;100.00;102268.06;5073149;28;20035;-35
2022/11/30 01:06:26;;;;;;;22.58;16.67;;;;;;;6.88;100.00;102267.06;5072896;28;20155;-36
2022/11/30 01:08:52;;;;;;;23.58;15.98;;;;;;;6.89;100.00;102271.44;5073318;28;20389;-35
2022/11/30 01:11:23;;;;;;;23.90;16.30;;;;;;;6.89;100.00;102274.13;5072926;28;20020;-35
2022/11/30 01:13:49;;;;;;;21.92;16.20;;;;;;;6.88;100.00;102272.44;5073477;28;20031;-35
2022/11/30 01:16:19;;;;;;;20.40;14.68;;;;;;;6.87;100.00;102265.34;5073357;28;20048;-35
2022/11/30 01:18:46;;;;;;;21.23;14.80;;;;;;;6.89;100.00;102268.72;5072174;28;20046;-35
2022/11/30 01:21:15;;;;;;;20.80;15.68;;;;;;;6.77;100.00;102250.44;5073927;28;20131;-35
2022/11/30 01:23:41;;;;;;;19.75;14.15;;;;;;;6.87;100.00;102270.75;5089223;28;20051;-35
2022/11/30 01:26:06;;;;;;;;;;;;;;;6.96;100.00;102268.88;5073307;28;20060;-35
2022/11/30 01:28:33;;;;;;;18.40;12.88;;;;;;;6.86;100.00;102266.38;5073526;28;19982;-35
2022/11/30 01:31:03;;;;;;;18.15;14.98;;;;;;;6.76;100.00;102265.72;5072997;28;20055;-35
2022/11/30 01:33:29;;;;;;;20.63;15.40;;;;;;;6.76;100.00;102273.78;5073648;28;20423;-35
2022/11/30 01:36:04;;;;;;;18.63;15.23;;;;;;;6.78;100.00;102274.44;5072520;28;20032;-35
2022/11/30 01:38:35;;;;;;;20.67;14.38;;;;;;;6.78;100.00;102279.81;5073610;28;20033;-35
2022/11/30 01:41:01;;;;;;;20.13;14.90;;;;;;;6.66;100.00;102259.69;5072808;28;20108;-35
2022/11/30 01:44:05;;;;;;;17.48;14.45;;;;;;;6.83;100.00;102272.13;5071779;28;20035;-35
2022/11/30 01:46:37;;;;;;;15.60;12.77;;;;;;;6.81;100.00;102290.25;5010524;28;20025;-35
2022/11/30 01:49:08;;;;;;;18.27;14.23;;;;;;;6.83;100.00;102284.69;5011048;28;20060;-35
2022/11/30 01:51:48;;;;;;;18.25;13.93;;;;;;;6.84;100.00;102281.84;5010588;28;20029;-35
2022/11/30 01:54:18;;;;;;;19.02;14.50;;;;;;;6.80;100.00;102272.44;4994881;28;20129;-35
2022/11/30 01:56:48;;;;;;;18.80;13.55;;;;;;;6.82;100.00;102270.41;5010673;28;20046;-35
2022/11/30 01:59:15;;;;;;;24.63;15.00;;;;;;;6.83;100.00;102282.88;5010702;28;20036;-35
2022/11/30 02:01:40;;;;;;;18.35;13.32;;;;;;;6.87;100.00;102289.56;5010733;28;20037;-35
2022/11/30 02:04:31;;;;;;;18.43;13.70;;;;;;;6.86;100.00;102301.34;5010717;28;20508;-35
2022/11/30 02:06:58;;;;;;;20.35;14.23;;;;;;;6.82;100.00;102301.84;5008389;28;20070;-35
2022/11/30 02:09:26;;;;;;;18.40;13.55;;;;;;;6.84;100.00;102306.06;5010704;28;20132;-35
2022/11/30 02:11:52;;;;;;;15.63;13.10;;;;;;;6.85;100.00;102301.50;5010447;28;20053;-35
2022/11/30 02:14:26;;;;;;;17.00;14.40;;;;;;;6.79;100.00;102288.75;5010920;28;20053;-35
2022/11/30 02:17:14;;;;;;;16.98;12.38;;;;;;;6.87;100.00;102304.84;5010515;28;20034;-35
2022/11/30 02:20:01;;;;;;;15.25;13.27;;;;;;;6.87;100.00;102297.63;5022278;28;20041;-35
2022/11/30 02:22:47;;;;;;;13.65;12.00;;;;;;;6.89;100.00;102305.53;5072431;28;20503;-35
2022/11/30 02:25:19;;;;;;;14.40;11.77;;;;;;;6.90;100.00;102299.16;5072945;28;20024;-35
2022/11/30 02:27:50;;;;;;;16.02;12.40;;;;;;;6.88;100.00;102291.25;5072749;28;20033;-35
2022/11/30 02:30:18;;;;;;;13.70;11.18;;;;;;;6.89;100.00;102292.94;5072400;28;20025;-35
2022/11/30 02:32:59;;;;;;;13.07;10.88;;;;;;;6.94;100.00;102301.31;5072446;28;20039;-35
2022/11/30 02:35:29;;;;;;;14.77;10.73;;;;;;;6.96;100.00;102306.53;5072301;28;20036;-35
2022/11/30 02:37:56;;;;;;;16.75;13.18;;;;;;;6.94;100.00;102300.50;5072407;28;20142;-35
2022/11/30 02:40:22;;;;;;;15.98;12.68;;;;;;;6.91;100.00;102298.13;5072376;28;20025;-35
2022/11/30 02:42:50;;;;;;;13.98;12.48;;;;;;;6.92;100.00;102303.31;5073035;28;20115;-35
2022/11/30 02:45:21;;;;;;;13.23;10.63;;;;;;;6.91;100.00;102296.28;5072173;28;20021;-35
2022/11/30 02:47:54;;;;;;;18.45;12.38;;;;;;;6.92;100.00;102297.13;5088248;28;20360;-35
2022/11/30 02:50:55;;;;;;;13.95;11.05;;;;;;;7.02;100.00;102299.63;5072425;28;20077;-35
2022/11/30 02:53:21;;;;;;;13.75;11.73;;;;;;;6.96;100.00;102304.66;5068985;28;20048;-35
2022/11/30 02:55:46;;;;;;;19.08;13.38;;;;;;;6.95;100.00;102311.06;5072117;28;20550;-35
2022/11/30 02:58:14;;;;;;;13.47;10.50;;;;;;;7.00;100.00;102307.03;5073541;28;20115;-35
2022/11/30 03:00:39;;;;;;;14.30;12.13;;;;;;;6.99;100.00;102308.88;5075688;28;20040;-35
2022/11/30 03:03:05;;;;;;;16.13;12.17;;;;;;;7.01;100.00;102308.69;5075984;28;20036;-35
2022/11/30 03:05:30;;;;;;;16.50;12.50;;;;;;;6.97;100.00;102311.72;5075419;28;20059;-35
2022/11/30 03:07:55;;;;;;;12.03;10.73;;;;;;;7.04;100.00;102313.75;5076070;28;20099;-35
2022/11/30 03:10:21;;;;;;;13.57;12.17;;;;;;;6.86;100.00;102289.75;5075430;28;20038;-35
2022/11/30 03:12:46;;;;;;;9.97;8.97;;;;;;;7.04;100.00;102309.22;5075749;28;20055;-34
2022/11/30 03:15:11;;;;;;;15.20;11.77;;;;;;;7.02;100.00;102311.22;5075157;28;20035;-35
2022/11/30 03:17:37;;;;;;;11.67;10.47;;;;;;;7.06;100.00;102309.84;5075081;28;20104;-35
2022/11/30 03:20:03;;;;;;;15.77;12.60;;;;;;;6.96;100.00;102309.22;5075258;28;20219;-35
2022/11/30 03:22:28;;;;;;;16.17;11.85;;;;;;;6.99;100.00;102303.50;5075563;28;20370;-35
2022/11/30 03:24:54;;;;;;;15.97;12.20;;;;;;;6.95;100.00;102294.09;5075143;28;20100;-35
2022/11/30 03:27:19;;;;;;;13.70;11.60;;;;;;;6.97;100.00;102305.50;5075235;28;20444;-35
2022/11/30 03:29:44;;;;;;;15.33;11.23;;;;;;;7.00;100.00;102305.19;5075322;28;20036;-35
2022/11/30 03:32:10;;;;;;;14.53;11.53;;;;;;;7.01;100.00;102312.22;5075162;28;20112;-35
2022/11/30 03:34:35;;;;;;;12.77;10.80;;;;;;;6.95;100.00;102316.44;5075259;28;20111;-35
2022/11/30 03:37:00;;;;;;;13.60;11.07;;;;;;;6.80;100.00;102277.81;5075085;28;20111;-35
2022/11/30 03:39:26;;;;;;;11.80;10.33;;;;;;;7.01;100.00;102314.09;5075359;28;20016;-35
2022/11/30 03:41:51;;;;;;;13.33;12.00;;;;;;;6.85;100.00;102296.97;5074838;28;20028;-33
2022/11/30 03:44:16;;;;;;;12.67;11.30;;;;;;;6.96;100.00;102315.44;5075307;28;20158;-34
2022/11/30 03:46:42;;;;;;;13.23;11.73;;;;;;;6.97;100.00;102310.88;5073406;28;20038;-34
2022/11/30 03:49:07;;;;;;;12.10;10.80;;;;;;;6.99;100.00;102313.44;5075029;28;20044;-35
2022/11/30 03:51:33;;;;;;;10.43;9.32;;;;;;;6.95;100.00;102308.38;5074714;28;20050;-35
2022/11/30 03:53:58;;;;;;;12.23;10.40;;;;;;;6.98;100.00;102309.91;5075297;28;20541;-34
2022/11/30 03:56:23;;;;;;;11.43;10.00;;;;;;;6.91;100.00;102306.19;5074642;28;20033;-34
2022/11/30 03:58:50;;;;;;;13.77;11.05;;;;;;;6.89;100.00;102305.53;5074633;28;20020;-34
2022/11/30 04:01:20;;;;;;;11.40;10.13;;;;;;;6.81;100.00;102297.47;5074562;28;20032;-34
2022/11/30 04:03:47;;;;;;;12.35;10.65;;;;;;;6.90;100.00;102316.13;5075507;28;20024;-34
2022/11/30 04:06:12;;;;;;;;;;;;;;;6.97;100.00;102316.25;5074786;28;20078;-34
2022/11/30 04:08:37;;;;;;;12.27;10.90;;;;;;;6.87;100.00;102329.91;5074446;28;19948;-34
2022/11/30 04:11:04;;;;;;;13.65;11.73;;;;;;;6.86;100.00;102325.53;5074373;28;20278;-34
2022/11/30 04:13:30;;;;;;;11.90;10.20;;;;;;;6.88;100.00;102323.53;5074580;28;20032;-34
2022/11/30 04:15:56;;;;;;;15.70;11.02;;;;;;;6.80;100.00;102304.72;5074127;28;20032;-34
2022/11/30 04:18:23;;;;;;;14.48;11.90;;;;;;;6.88;100.00;102326.22;5073976;28;20035;-35
2022/11/30 04:20:50;;;;;;;13.48;12.10;;;;;;;6.82;100.00;102323.34;5073729;28;20082;-35
2022/11/30 04:23:15;;;;;;;14.70;12.52;;;;;;;6.81;100.00;102322.53;5074388;28;20027;-35
2022/11/30 04:25:41;;;;;;;15.03;13.43;;;;;;;6.61;100.00;102295.16;5073938;28;20028;-35
2022/11/30 04:28:08;;;;;;;14.30;12.30;;;;;;;6.75;100.00;102328.59;5074220;28;20461;-35
2022/11/30 04:30:34;;;;;;;12.45;10.75;;;;;;;6.78;100.00;102319.31;5073951;28;20388;-35
2022/11/30 04:33:00;;;;;;;14.95;12.90;;;;;;;6.74;100.00;102318.84;5073887;28;20074;-35
2022/11/30 04:35:25;;;;;;;13.40;12.00;;;;;;;6.73;100.00;102330.59;5074220;28;20032;-35
2022/11/30 04:37:51;;;;;;;15.30;12.67;;;;;;;6.56;100.00;102305.56;5073965;28;20337;-35
2022/11/30 04:40:16;;;;;;;15.27;11.23;;;;;;;6.68;100.00;102328.41;5073694;28;20020;-35
2022/11/30 04:42:41;;;;;;;14.70;12.93;;;;;;;6.60;100.00;102303.41;5073740;28;20392;-35
2022/11/30 04:45:07;;;;;;;15.80;11.67;;;;;;;6.70;100.00;102325.56;5073518;28;20060;-35
2022/11/30 04:47:32;;;;;;;16.05;13.63;;;;;;;6.63;100.00;102311.09;5073846;28;20389;-35
2022/11/30 04:49:58;;;;;;;11.03;9.57;;;;;;;6.74;100.00;102320.69;5073569;28;20033;-35
2022/11/30 04:52:23;;;;;;;11.60;10.10;;;;;;;6.73;100.00;102317.13;5074161;28;20029;-35
2022/11/30 04:54:50;;;;;;;15.13;12.40;;;;;;;6.69;100.00;102326.56;5073506;28;20020;-35
2022/11/30 04:57:15;;;;;;;10.73;8.88;;;;;;;6.69;100.00;102318.50;5073311;28;20381;-35
2022/11/30 04:59:41;;;;;;;10.83;9.73;;;;;;;6.70;100.00;102320.19;5073110;28;20036;-35
2022/11/30 05:02:06;;;;;;;13.23;11.03;;;;;;;6.64;100.00;102320.88;5072973;28;20363;-35
2022/11/30 05:04:31;;;;;;;15.90;12.53;;;;;;;6.60;100.00;102322.22;5073887;28;20024;-35
2022/11/30 05:06:57;;;;;;;12.73;10.43;;;;;;;6.60;100.00;102319.53;5073446;28;20035;-35
2022/11/30 05:09:22;;;;;;;12.23;10.17;;;;;;;6.65;100.00;102327.91;5073046;28;20052;-35
2022/11/30 05:11:48;;;;;;;13.27;11.17;;;;;;;6.64;100.00;102329.78;5073332;28;20541;-35
2022/11/30 05:14:13;;;;;;;14.63;12.45;;;;;;;6.62;100.00;102329.09;5073419;28;20107;-35
2022/11/30 05:16:39;;;;;;;13.47;11.73;;;;;;;6.61;100.00;102323.88;5072924;28;20502;-35
2022/11/30 05:19:04;;;;;;;11.43;10.23;;;;;;;6.63;100.00;102337.97;5073604;28;20096;-35
2022/11/30 05:21:29;;;;;;;11.37;9.83;;;;;;;6.64;100.00;102337.84;5072471;28;20048;-35
2022/11/30 05:23:55;;;;;;;11.13;9.90;;;;;;;6.53;100.00;102322.03;5073301;28;20039;-35
2022/11/30 05:26:20;;;;;;;12.57;11.27;;;;;;;6.63;100.00;102337.97;5072994;28;20041;-35
2022/11/30 05:28:45;;;;;;;12.87;9.90;;;;;;;6.65;100.00;102330.59;5073743;28;20024;-35
2022/11/30 05:31:11;;;;;;;15.77;12.50;;;;;;;6.61;100.00;102338.16;5072700;28;20032;-35
2022/11/30 05:33:36;;;;;;;17.30;12.17;;;;;;;6.63;100.00;102346.03;5071502;28;20427;-35
2022/11/30 05:36:01;;;;;;;13.37;11.60;;;;;;;6.64;100.00;102350.44;5072801;28;20368;-35
2022/11/30 05:38:27;;;;;;;12.47;10.70;;;;;;;6.51;100.00;102329.44;5073237;28;20028;-35
2022/11/30 05:40:58;;;;;;;13.50;12.07;;;;;;;6.57;100.00;102339.50;5072632;28;20020;-35
2022/11/30 05:43:23;;;;;;;12.48;11.18;;;;;;;6.59;100.00;102347.41;5088411;28;20032;-35
2022/11/30 05:45:49;;;;;;;14.20;12.57;;;;;;;6.50;100.00;102337.66;5072876;28;20025;-35
2022/11/30 05:48:14;;;;;;;13.47;12.07;;;;;;;6.53;100.00;102340.84;5072890;28;20032;-35
2022/11/30 05:50:39;;;;;;;13.97;12.57;;;;;;;6.56;100.00;102355.81;5073010;28;20104;-35
2022/11/30 05:53:04;;;;;;;14.63;12.07;;;;;;;6.55;100.00;102354.97;5072554;28;20354;-35
2022/11/30 05:55:31;;;;;;;12.80;11.60;;;;;;;6.54;100.00;102353.28;5072348;28;20157;-35
2022/11/30 05:57:56;;;;;;;;;;;;;;;6.61;100.00;102356.13;5073340;28;20025;-35
2022/11/30 06:00:21;;;;;;;11.03;9.83;;;;;;;6.61;100.00;102364.19;5072557;28;20041;-34
2022/11/30 06:02:47;;;;;;;11.20;10.10;;;;;;;6.61;100.00;102353.44;5072635;28;20099;-34
2022/11/30 06:05:12;;;;;;;15.07;12.55;;;;;;;6.59;100.00;102355.47;5073277;28;20029;-35
2022/11/30 06:07:39;;;;;;;14.07;12.53;;;;;;;6.60;100.00;102360.69;5072558;28;20032;-35
2022/11/30 06:10:06;;;;;;;13.85;12.32;;;;;;;6.52;100.00;102344.53;5072530;28;20039;-35
2022/11/30 06:12:31;;;;;;;14.13;12.55;;;;;;;6.60;100.00;102362.53;5072705;28;20094;-35
2022/11/30 06:14:57;;;;;;;12.20;10.77;;;;;;;6.64;100.00;102363.88;5072239;28;20462;-35
2022/11/30 06:17:22;;;;;;;14.53;12.53;;;;;;;6.61;100.00;102364.19;5073002;28;20025;-35
2022/11/30 06:19:47;;;;;;;13.83;12.37;;;;;;;6.58;100.00;102361.84;5072972;28;20372;-36
2022/11/30 06:22:13;;;;;;;13.13;11.73;;;;;;;6.54;100.00;102347.06;5072234;28;20384;-34
2022/11/30 06:24:38;;;;;;;13.47;11.90;;;;;;;6.63;100.00;102370.25;5073158;28;20041;-34
2022/11/30 06:27:03;;;;;;;14.93;13.30;;;;;;;6.60;100.00;102368.75;5072089;28;20066;-34
2022/11/30 06:29:28;;;;;;;14.53;11.40;;;;;;;6.64;100.00;102361.19;5072183;28;20031;-34
2022/11/30 06:31:54;;;;;;;15.87;13.93;;;;;;;6.50;100.00;102343.88;5073032;28;20051;-34
2022/11/30 06:34:19;;;;;;;17.53;14.90;;;;;;;6.52;100.00;102354.47;5076187;28;20020;-34
2022/11/30 06:36:44;;;;;;;13.63;12.23;;;;;;;6.59;100.00;102366.22;5076133;28;20047;-34
2022/11/30 06:39:11;;;;;;;11.47;10.27;;;;;;;6.63;100.00;102379.13;5076258;28;20029;-35
2022/11/30 06:41:36;;;;;;;11.90;10.32;;;;;;;6.53;100.00;102361.50;5076181;28;20043;-35
2022/11/30 06:44:07;;;;;;;15.10;13.10;;;;;;;6.58;100.00;102373.44;5075759;28;20024;-35
2022/11/30 06:46:32;;;;;;;17.15;15.07;;;;;;;6.54;100.00;102372.09;5075623;28;20029;-35
2022/11/30 06:48:57;;;;;;;16.50;13.20;;;;;;;6.58;100.00;102370.75;5075944;28;20021;-35
2022/11/30 06:51:23;;;;;;;14.80;13.13;;;;;;;6.58;100.00;102364.53;5076318;28;20088;-35
2022/11/30 06:53:48;;;;;;;16.23;12.63;;;;;;;6.54;100.00;102372.09;5076204;28;20467;-35
2022/11/30 06:56:13;;;;;;;17.37;13.90;;;;;;;6.56;100.00;102370.09;5076012;28;20404;-35
2022/11/30 06:58:40;;;;;;;13.37;11.73;;;;;;;6.57;100.00;102377.13;5075432;28;20100;-35
2022/11/30 07:01:11;;;;;;;17.13;14.15;;;;;;;6.57;100.00;102382.50;5075622;28;20028;-35
2022/11/30 07:03:36;;;;;;;15.90;13.63;;;;;;;6.57;100.00;102382.50;5075777;28;20025;-35
2022/11/30 07:06:09;;;;;;;17.80;14.40;;;;;;;6.52;100.00;102382.16;5075425;28;20120;-35
2022/11/30 07:08:35;;;;;;;15.82;14.13;;;;;;;6.52;100.00;102389.41;5075838;28;20464;-35
2022/11/30 07:11:00;;;;;;;15.85;13.95;;;;;;;6.50;100.00;102388.72;5075963;28;20044;-36
2022/11/30 07:13:26;;;;;;;15.35;13.38;;;;;;;6.43;100.00;102378.63;5075806;28;20051;-35
2022/11/30 07:15:51;;;;;;;15.57;13.07;;;;;;;6.51;100.00;102385.03;5076192;28;20055;-35
2022/11/30 07:18:16;;;;;;;16.70;14.20;;;;;;;6.48;100.00;102379.97;5075480;28;20418;-34
2022/11/30 07:20:42;;;;;;;17.10;14.70;;;;;;;6.50;100.00;102394.09;5075320;28;20060;-34
2022/11/30 07:26:11;;;;;;;16.05;13.00;;;;;;;6.47;100.00;102400.63;5074918;28;20082;-34
2022/11/30 07:28:41;;;;;;;15.27;12.00;;;;;;;6.49;100.00;102409.41;5074833;28;20081;-35
2022/11/30 07:31:42;;;;;;;15.80;13.40;;;;;;;6.49;100.00;102417.47;5075645;28;20024;-35
2022/11/30 07:34:08;;;;;;;13.70;11.68;;;;;;;6.48;100.00;102418.44;5013534;28;20041;-35
2022/11/30 07:36:35;;;;;;;13.77;12.23;;;;;;;6.47;100.00;102421.31;5013118;28;20061;-35
2022/11/30 07:39:00;;;;;;;;;;;;;;;6.55;100.00;102419.47;5013917;28;20038;-34
2022/11/30 07:41:25;;;;;;;16.70;13.63;;;;;;;6.50;100.00;102424.50;5012803;28;19913;-34
2022/11/30 07:43:51;;;;;;;19.17;13.90;;;;;;;6.49;100.00;102430.91;5013133;28;20091;-34
2022/11/30 07:46:16;;;;;;;15.80;14.10;;;;;;;6.51;100.00;102433.41;5012616;28;20057;-34
2022/11/30 07:48:43;;;;;;;14.48;12.15;;;;;;;6.54;100.00;102427.69;5012770;28;20542;-35
2022/11/30 07:51:13;;;;;;;16.15;13.13;;;;;;;6.50;100.00;102437.94;5013174;28;20034;-35
2022/11/30 07:53:39;;;;;;;16.65;14.73;;;;;;;6.47;100.00;102432.06;5013189;28;20120;-35
2022/11/30 07:56:07;;;;;;;19.08;16.15;;;;;;;6.44;100.00;102436.75;5012506;28;20134;-35
2022/11/30 07:58:33;;;;;;;16.88;14.98;;;;;;;6.53;100.00;102434.91;5012991;28;20028;-35
2022/11/30 08:01:06;;;;;;;;;;;;;;;6.58;100.00;102439.78;5013232;28;20049;-35
2022/11/30 08:03:32;;;;;;;19.70;17.08;;;;;;;6.50;100.00;102437.94;5013213;28;19910;-35
2022/11/30 08:06:06;;;;;;;15.13;13.23;;;;;;;6.55;100.00;102429.38;5012397;28;20502;-36
2022/11/30 08:08:33;;;;;;;17.05;15.07;;;;;;;6.56;100.00;102439.13;5055302;28;20105;-35
2022/11/30 08:11:00;;;;;;;19.60;17.08;;;;;;;6.44;100.00;102426.00;5074321;28;20353;-36
2022/11/30 08:13:25;;;;;;;;;;;;;;;6.61;100.00;102450.22;5074794;28;20029;-35
2022/11/30 08:15:51;;;;;;;16.80;14.55;;;;;;;6.53;100.00;102445.66;5075526;28;19908;-35
2022/11/30 08:18:16;;;;;;;18.10;15.43;;;;;;;6.51;100.00;102450.38;5074386;28;20032;-35
2022/11/30 08:20:41;;;;;;;17.67;15.53;;;;;;;6.60;100.00;102449.38;5074327;28;20024;-35
2022/11/30 08:23:07;;;;;;;20.17;16.80;;;;;;;6.61;100.00;102458.28;5074565;28;20194;-35
2022/11/30 08:25:35;;;;;;;20.47;16.47;;;;;;;6.57;100.00;102459.63;5074097;28;20120;-35
2022/11/30 08:28:00;;;;;;;22.85;18.00;;;;;;;6.56;100.00;102457.94;5074466;28;20070;-35
2022/11/30 08:30:26;;;;;;;19.60;16.53;;;;;;;6.60;100.00;102464.66;5074509;28;20032;-35
2022/11/30 08:32:51;;;;;;;21.87;16.43;;;;;;;6.59;100.00;102463.00;5073656;28;20020;-35
2022/11/30 08:35:16;;;;;;;20.33;17.37;;;;;;;6.54;100.00;102462.63;5073945;28;20299;-35
2022/11/30 08:37:42;;;;;;;19.70;16.90;;;;;;;6.48;100.00;102460.59;5073575;28;20102;-35
2022/11/30 08:40:07;;;;;;;18.97;15.20;;;;;;;6.46;100.00;102458.09;5073445;28;20079;-35
2022/11/30 08:42:33;;;;;;;21.55;17.23;;;;;;;6.48;100.00;102468.66;5074059;28;20036;-35
2022/11/30 08:44:58;;;;;;;19.07;16.27;;;;;;;6.44;100.00;102469.00;5073935;28;20029;-35
2022/11/30 08:47:23;;;;;;;18.87;15.13;;;;;;;6.44;100.00;102477.06;5073947;28;20029;-35
2022/11/30 08:49:49;;;;;;;20.90;17.27;;;;;;;6.42;100.00;102467.47;5074249;28;20113;-35
2022/11/30 08:52:14;;;;;;;21.83;17.90;;;;;;;6.44;100.00;102474.38;5073527;28;20029;-35
2022/11/30 08:54:44;;;;;;;19.80;16.10;;;;;;;6.56;100.00;102482.13;5073405;28;20020;-35
2022/11/30 08:57:09;;;;;;;20.27;16.80;;;;;;;6.56;100.00;102476.75;5072771;28;20021;-35
2022/11/30 08:59:35;;;;;;;23.60;18.65;;;;;;;6.56;100.00;102461.47;5073741;28;20021;-35
2022/11/30 09:02:00;;;;;;;19.97;16.93;;;;;;;6.69;100.00;102469.06;5074073;28;20031;-35
2022/11/30 09:04:26;;;;;;;19.85;17.65;;;;;;;6.69;100.00;102461.00;5074027;28;20024;-35
2022/11/30 09:06:51;;;;;;;22.27;17.37;;;;;;;6.83;100.00;102481.84;5073227;28;20024;-35
2022/11/30 09:09:16;;;;;;;18.73;16.07;;;;;;;6.81;100.00;102465.03;5073353;28;20438;-35
2022/11/30 09:11:42;;;;;;;19.70;17.27;;;;;;;6.80;100.00;102475.97;5073158;28;20473;-35
2022/11/30 09:14:08;;;;;;;18.83;16.83;;;;;;;6.85;100.00;102469.06;5073467;28;20040;-35
2022/11/30 09:16:34;;;;;;;19.63;17.38;;;;;;;6.85;100.00;102479.81;5073174;28;20476;-36
2022/11/30 09:18:59;;;;;;;23.65;18.58;;;;;;;6.87;100.00;102488.56;5072898;28;20123;-35
2022/11/30 09:21:25;;;;;;;20.70;16.90;;;;;;;6.94;100.00;102494.97;5073682;28;20028;-35
2022/11/30 09:23:51;;;;;;;19.43;17.33;;;;;;;7.00;100.00;102492.63;5073948;28;20090;-36
2022/11/30 09:26:19;;;;;;;20.40;18.20;;;;;;;6.85;100.00;102489.75;5072951;28;20107;-35
2022/11/30 09:28:45;;;;;;;22.48;17.98;;;;;;;6.91;100.00;102500.66;5073525;28;20071;-35
2022/11/30 09:31:19;;;;;;;21.63;17.85;;;;;;;6.82;100.00;102488.22;5073156;28;20131;-35
2022/11/30 09:33:45;;;;;;;20.38;17.67;;;;;;;6.82;100.00;102506.19;5073367;28;20419;-35
2022/11/30 09:36:17;;;;;;;19.35;16.95;;;;;;;6.88;100.00;102501.03;5072683;28;20028;-35
2022/11/30 09:38:42;;;;;;;22.55;18.00;;;;;;;6.69;100.00;102485.19;5073533;28;20029;-35
2022/11/30 09:41:40;;;;;;;24.17;19.63;;;;;;;6.92;100.00;102498.81;5072664;28;20438;-35
2022/11/30 09:44:24;;;;;;;31.80;28.33;;;;;;;6.94;100.00;102505.72;5073644;28;20361;-35
2022/11/30 09:47:03;;;;;;;40.97;36.50;;;;;;;6.99;100.00;102507.09;5073504;28;20032;-35
2022/11/30 09:49:38;;;;;;;33.08;29.48;;;;;;;7.04;100.00;102497.50;5072771;28;20040;-35
2022/11/30 09:52:08;;;;;;;28.17;24.02;;;;;;;7.05;100.00;102496.47;5073596;28;20032;-35
2022/11/30 09:54:36;;;;;;;22.83;19.63;;;;;;;7.05;100.00;102493.78;5072923;28;20036;-35
2022/11/30 09:57:38;;;;;;;25.33;20.00;;;;;;;7.00;100.00;102492.63;5072817;28;20032;-35
2022/11/30 10:00:25;;;;;;;25.77;20.25;;;;;;;7.08;100.00;102488.09;5072798;28;20039;-35
2022/11/30 10:02:53;;;;;;;26.60;20.30;;;;;;;7.11;100.00;102492.28;5072158;28;20045;-35
2022/11/30 10:05:25;;;;;;;25.13;19.30;;;;;;;7.15;100.00;102486.38;5072897;28;20088;-35
2022/11/30 10:08:12;;;;;;;23.05;19.95;;;;;;;7.19;100.00;102489.59;5076008;28;20056;-35
2022/11/30 10:10:37;;;;;;;25.65;20.35;;;;;;;7.19;100.00;102497.66;5076745;28;20025;-35
2022/11/30 10:13:15;;;;;;;22.20;19.10;;;;;;;7.20;100.00;102485.88;5077262;28;20029;-35
2022/11/30 10:16:29;;;;;;;21.42;18.08;;;;;;;7.23;100.00;102491.78;5077157;28;20388;-35
2022/11/30 10:19:31;;;;;;;22.27;19.77;;;;;;;7.27;100.00;102489.59;5077061;28;20047;-35
2022/11/30 10:22:15;;;;;;;21.15;17.08;;;;;;;7.33;100.00;102488.09;5076370;28;20025;-34
2022/11/30 10:24:56;;;;;;;24.42;21.92;;;;;;;7.39;100.00;102482.00;5076517;28;20028;-34
2022/11/30 10:27:39;;;;;;;20.70;18.40;;;;;;;7.41;100.00;102491.56;5076637;28;20032;-35
2022/11/30 10:30:17;;;;;;;19.00;16.75;;;;;;;7.49;100.00;102478.13;5076393;28;20043;-35
2022/11/30 10:32:46;;;;;;;18.33;15.85;;;;;;;7.47;100.00;102482.84;5076280;28;20032;-34
2022/11/30 10:35:30;;;;;;;19.65;17.00;;;;;;;7.49;100.00;102482.66;5076339;28;20038;-34
2022/11/30 10:37:58;;;;;;;17.38;15.07;;;;;;;7.47;100.00;102480.16;5076149;28;20036;-34
2022/11/30 10:40:38;;;;;;;15.65;13.90;;;;;;;7.53;100.00;102480.47;5076764;28;20029;-34
2022/11/30 10:43:14;;;;;;;16.75;14.23;;;;;;;7.57;100.00;102479.13;5075639;28;20372;-34
2022/11/30 10:45:46;;;;;;;16.02;14.32;;;;;;;7.47;100.00;102472.09;5076506;28;20156;-34
2022/11/30 10:48:20;;;;;;;23.33;19.50;;;;;;;7.60;100.00;102478.78;5075944;28;20529;-34
2022/11/30 10:50:45;;;;;;;19.05;16.60;;;;;;;7.60;100.00;102478.78;5075745;28;20082;-35
2022/11/30 10:53:11;;;;;;;17.92;16.02;;;;;;;7.67;100.00;102479.78;5076000;28;20029;-35
2022/11/30 10:55:44;;;;;;;21.85;18.17;;;;;;;7.68;100.00;102473.38;5074676;28;20120;-35
2022/11/30 10:58:21;;;;;;;18.90;15.90;;;;;;;7.72;100.00;102470.16;5076370;28;20036;-35
2022/11/30 11:01:06;;;;;;;19.90;16.90;;;;;;;7.77;100.00;102483.13;5076140;28;20028;-35
2022/11/30 11:03:32;;;;;;;19.10;16.73;;;;;;;7.77;100.00;102472.34;5075805;28;20497;-35
2022/11/30 11:06:06;;;;;;;20.85;16.55;;;;;;;7.84;100.00;102464.41;5076166;28;20115;-35
2022/11/30 11:08:31;;;;;;;21.58;18.20;;;;;;;7.81;100.00;102459.34;5075562;28;20472;-35
2022/11/30 11:10:57;;;;;;;20.23;16.47;;;;;;;7.93;100.00;102469.59;5075595;28;20051;-35
2022/11/30 11:13:38;;;;;;;19.83;17.30;;;;;;;7.98;100.00;102479.84;5075944;28;20123;-35
2022/11/30 11:16:06;;;;;;;19.10;16.15;;;;;;;7.85;100.00;102464.22;5075530;28;20060;-35
2022/11/30 11:18:33;;;;;;;19.33;16.20;;;;;;;7.98;100.00;102477.16;5075573;28;20067;-35
2022/11/30 11:21:16;;;;;;;19.60;15.60;;;;;;;7.92;100.00;102470.63;5076114;28;20036;-36